Time;durP1;ratioP1;P1;durP2;ratioP2;P2;SDS_P1;SDS_P2;PMS_P1;PMS_P2;Temp;Humidity;BMP_temperature;BMP_pressure;BME280_temperature;BME280_humidity;BME280_pressure;Samples;Min_cycle;Max_cycle;Signal;HPM_P1;HPM_P2
2022/12/13 00:02:25;;;;;;;18.80;4.95;;;;;;;;;;5056823;28;19928;-83
2022/12/13 00:04:54;;;;;;;10.82;4.53;;;;;;;;;;5043610;28;20410;-82
2022/12/13 00:07:27;;;;;;;9.88;4.72;;;;;;;;;;5044292;28;20053;-82
2022/12/13 00:09:54;;;;;;;;;;;;;;;;;;5038625;28;20049;-81
2022/12/13 00:12:22;;;;;;;;;;;;;;;;;;5044894;28;19921;-82
2022/12/13 00:14:50;;;;;;;6.85;4.47;;;;;;;;;;5046619;28;19925;-82
2022/12/13 00:17:23;;;;;;;6.60;3.75;;;;;;;;;;5043923;28;20056;-81
2022/12/13 00:19:50;;;;;;;;;;;;;;;;;;5037963;28;20053;-82
2022/12/13 00:22:19;;;;;;;11.25;4.65;;;;;;;;;;5040176;28;20409;-82
2022/12/13 00:24:53;;;;;;;10.88;5.00;;;;;;;;;;5041524;28;20054;-82
2022/12/13 00:27:26;;;;;;;8.50;5.35;;;;;;;;;;5075007;28;20042;-81
2022/12/13 00:29:59;;;;;;;10.05;4.85;;;;;;;;;;5048954;28;20048;-82
2022/12/13 00:32:32;;;;;;;8.95;5.25;;;;;;;;;;5036478;28;20057;-82
2022/12/13 00:35:05;;;;;;;8.05;4.40;;;;;;;;;;5048347;28;20040;-82
2022/12/13 00:37:39;;;;;;;23.40;4.70;;;;;;;;;;5046386;28;20053;-82
2022/12/13 00:40:12;;;;;;;9.68;4.72;;;;;;;;;;5044871;28;20056;-82
2022/12/13 00:42:40;;;;;;;8.30;4.82;;;;;;;;;;5038898;28;20053;-82
2022/12/13 00:45:13;;;;;;;10.90;5.53;;;;;;;;;;5044681;28;20052;-82
2022/12/13 00:47:41;;;;;;;7.45;4.03;;;;;;;;;;5050986;28;20053;-82
2022/12/13 00:50:08;;;;;;;;;;;;;;;;;;5037883;28;20057;-83
2022/12/13 00:52:42;;;;;;;11.80;4.47;;;;;;;;;;5082186;28;19931;-82
2022/12/13 00:55:10;;;;;;;9.85;5.38;;;;;;;;;;5051472;28;20068;-82
2022/12/13 00:57:43;;;;;;;8.07;4.97;;;;;;;;;;5048455;28;20041;-82
2022/12/13 01:00:10;;;;;;;;;;;;;;;;;;5050800;28;20044;-82
2022/12/13 01:02:38;;;;;;;;;;;;;;;;;;5054973;28;20293;-83
2022/12/13 01:05:11;;;;;;;8.63;4.57;;;;;;;;;;5050533;28;19925;-82
2022/12/13 01:07:46;;;;;;;7.80;4.60;;;;;;;;;;5047370;28;20057;-82
2022/12/13 01:10:14;;;;;;;11.27;5.45;;;;;;;;;;5050595;28;20049;-81
2022/12/13 01:12:47;;;;;;;10.82;4.80;;;;;;;;;;5057922;28;20391;-82
2022/12/13 01:15:14;;;;;;;;;;;;;;;;;;5054360;28;20052;-82
2022/12/13 01:17:48;;;;;;;17.63;7.15;;;;;;;;;;5040869;28;19928;-82
2022/12/13 01:20:21;;;;;;;17.38;4.95;;;;;;;;;;5059634;28;20084;-82
2022/12/13 01:22:50;;;;;;;12.77;6.65;;;;;;;;;;5037945;28;20061;-82
2022/12/13 01:25:23;;;;;;;11.18;6.13;;;;;;;;;;5050581;28;20052;-82
2022/12/13 01:27:51;;;;;;;15.27;6.22;;;;;;;;;;5053092;28;20048;-82
2022/12/13 01:30:24;;;;;;;10.27;5.47;;;;;;;;;;5070172;28;20422;-83
2022/12/13 01:32:52;;;;;;;;;;;;;;;;;;5038830;28;20045;-82
2022/12/13 01:35:20;;;;;;;11.25;5.72;;;;;;;;;;5046169;28;19921;-82
2022/12/13 01:37:47;;;;;;;8.45;6.00;;;;;;;;;;5047957;28;20048;-82
2022/12/13 01:40:21;;;;;;;12.05;5.95;;;;;;;;;;5048268;28;20065;-82
2022/12/13 01:42:54;;;;;;;10.82;5.95;;;;;;;;;;5060401;28;20049;-82
2022/12/13 01:45:28;;;;;;;14.95;6.47;;;;;;;;;;5053638;28;20508;-82
2022/12/13 01:47:58;;;;;;;10.07;5.43;;;;;;;;;;5042744;28;20060;-82
2022/12/13 01:50:27;;;;;;;12.75;6.63;;;;;;;;;;5049904;28;20510;-83
2022/12/13 01:52:56;;;;;;;9.25;5.25;;;;;;;;;;5041931;28;20493;-82
2022/12/13 01:55:33;;;;;;;10.38;5.00;;;;;;;;;;5051188;28;20387;-82
2022/12/13 01:58:02;;;;;;;13.88;5.70;;;;;;;;;;5043789;28;20056;-83
2022/12/13 02:00:35;;;;;;;14.27;5.43;;;;;;;;;;5054590;28;20055;-82
2022/12/13 02:03:08;;;;;;;16.38;7.78;;;;;;;;;;5047200;28;20053;-83
2022/12/13 02:05:43;;;;;;;15.80;6.38;;;;;;;;;;5049079;28;20049;-82
2022/12/13 02:08:16;;;;;;;8.38;4.63;;;;;;;;;;5037698;28;20050;-83
2022/12/13 02:10:50;;;;;;;15.85;6.95;;;;;;;;;;5043550;28;20131;-82
2022/12/13 02:13:22;;;;;;;16.25;6.60;;;;;;;;;;5043485;28;20053;-82
2022/12/13 02:15:55;;;;;;;9.13;4.20;;;;;;;;;;5044381;28;20056;-82
2022/12/13 02:18:33;;;;;;;13.00;6.35;;;;;;;;;;5050449;28;20056;-82
2022/12/13 02:21:11;;;;;;;14.73;8.10;;;;;;;;;;5050218;28;20520;-83
2022/12/13 02:24:01;;;;;;;19.38;7.78;;;;;;;;;;5047277;28;20052;-82
2022/12/13 02:26:44;;;;;;;12.77;6.22;;;;;;;;;;5025052;28;20521;-82
2022/12/13 02:29:25;;;;;;;10.68;4.97;;;;;;;;;;5036154;28;20041;-82
2022/12/13 02:31:58;;;;;;;15.30;6.45;;;;;;;;;;5037916;28;20787;-82
2022/12/13 02:34:34;;;;;;;14.40;5.70;;;;;;;;;;5059144;28;20060;-82
2022/12/13 02:37:14;;;;;;;12.10;6.30;;;;;;;;;;5044712;28;20052;-82
2022/12/13 02:39:49;;;;;;;20.85;6.00;;;;;;;;;;5040417;28;20064;-81
2022/12/13 02:42:25;;;;;;;12.02;5.28;;;;;;;;;;5045549;28;20057;-82
2022/12/13 02:44:56;;;;;;;10.60;6.47;;;;;;;;;;5051617;28;20049;-82
2022/12/13 02:47:30;;;;;;;11.18;5.20;;;;;;;;;;5047533;28;20056;-82
2022/12/13 02:50:05;;;;;;;11.93;5.95;;;;;;;;;;5042025;28;20053;-82
2022/12/13 02:52:39;;;;;;;12.18;5.88;;;;;;;;;;5036521;28;20068;-82
2022/12/13 02:55:13;;;;;;;9.05;5.22;;;;;;;;;;5053441;28;20400;-81
2022/12/13 02:57:47;;;;;;;11.90;7.05;;;;;;;;;;5045300;28;20056;-82
2022/12/13 03:00:23;;;;;;;8.85;4.70;;;;;;;;;;5055665;28;20052;-81
2022/12/13 03:03:00;;;;;;;18.48;7.63;;;;;;;;;;5042782;28;20053;-82
2022/12/13 03:08:31;;;;;;;12.30;5.15;;;;;;;;;;5078909;28;20045;-81
2022/12/13 03:11:03;;;;;;;11.05;5.90;;;;;;;;;;5049176;28;20049;-82
2022/12/13 03:13:35;;;;;;;8.40;4.70;;;;;;;;;;5047307;28;20057;-82
2022/12/13 03:16:08;;;;;;;13.77;6.72;;;;;;;;;;5078721;28;20053;-82
2022/12/13 03:18:42;;;;;;;15.40;6.38;;;;;;;;;;5055293;28;20045;-82
2022/12/13 03:21:15;;;;;;;12.98;5.88;;;;;;;;;;5039138;28;20402;-82
2022/12/13 03:23:43;;;;;;;;;;;;;;;;;;5052143;28;20057;-82
2022/12/13 03:26:18;;;;;;;12.10;5.63;;;;;;;;;;5047052;28;19921;-82
2022/12/13 03:28:51;;;;;;;12.88;5.63;;;;;;;;;;5046259;28;20042;-83
2022/12/13 03:31:28;;;;;;;11.60;5.63;;;;;;;;;;5045200;28;20076;-82
2022/12/13 03:34:02;;;;;;;12.82;6.55;;;;;;;;;;5035406;28;20044;-83
2022/12/13 03:36:30;;;;;;;14.27;4.53;;;;;;;;;;5041586;28;20041;-82
2022/12/13 03:39:03;;;;;;;18.65;6.13;;;;;;;;;;5044332;28;20092;-82
2022/12/13 03:41:31;;;;;;;;;;;;;;;;;;5049318;28;20052;-82
2022/12/13 03:43:59;;;;;;;9.57;5.20;;;;;;;;;;5070417;28;19928;-82
2022/12/13 03:46:32;;;;;;;10.27;4.95;;;;;;;;;;5040367;28;20060;-82
2022/12/13 03:49:00;;;;;;;16.08;5.95;;;;;;;;;;5051119;28;20049;-82
2022/12/13 03:51:34;;;;;;;12.60;5.53;;;;;;;;;;5064670;28;20054;-83
2022/12/13 03:54:07;;;;;;;10.82;5.50;;;;;;;;;;5077254;28;20060;-82
2022/12/13 03:56:40;;;;;;;12.45;5.38;;;;;;;;;;5044125;28;20048;-82
2022/12/13 03:59:07;;;;;;;13.73;5.38;;;;;;;;;;5042183;28;20056;-82
2022/12/13 04:01:35;;;;;;;11.15;4.88;;;;;;;;;;5048017;28;20045;-81
2022/12/13 04:04:08;;;;;;;10.60;5.38;;;;;;;;;;5050653;28;20045;-82
2022/12/13 04:06:36;;;;;;;;;;;;;;;;;;5051571;28;20045;-82
2022/12/13 04:09:10;;;;;;;10.93;4.45;;;;;;;;;;5047091;28;19921;-82
2022/12/13 04:14:33;;;;;;;9.30;5.13;;;;;;;;;;5064124;28;20065;-83
2022/12/13 04:17:01;;;;;;;;;;;;;;;;;;5042580;28;20045;-82
2022/12/13 04:19:33;;;;;;;6.63;3.55;;;;;;;;;;5071867;28;20008;-83
2022/12/13 04:22:01;;;;;;;;;;;;;;;;;;5048317;28;20061;-82
2022/12/13 04:24:36;;;;;;;6.53;3.72;;;;;;;;;;5046050;28;19932;-83
2022/12/13 04:27:09;;;;;;;9.23;4.65;;;;;;;;;;5050433;28;20049;-82
2022/12/13 04:29:41;;;;;;;8.45;4.35;;;;;;;;;;5038165;28;20117;-82
2022/12/13 04:32:14;;;;;;;7.43;3.97;;;;;;;;;;5037590;28;20057;-82
2022/12/13 04:34:47;;;;;;;12.63;5.75;;;;;;;;;;5044049;28;20063;-82
2022/12/13 04:37:20;;;;;;;17.13;6.10;;;;;;;;;;5036254;28;20057;-82
2022/12/13 04:39:54;;;;;;;8.00;4.82;;;;;;;;;;5047599;28;20049;-83
2022/12/13 04:42:27;;;;;;;10.80;4.28;;;;;;;;;;5032320;28;20041;-82
2022/12/13 04:44:54;;;;;;;;;;;;;;;;;;5032671;28;20072;-82
2022/12/13 04:47:22;;;;;;;6.25;3.95;;;;;;;;;;5035419;28;20305;-81
2022/12/13 04:49:50;;;;;;;9.15;4.07;;;;;;;;;;5041091;28;20050;-81
2022/12/13 04:52:23;;;;;;;10.65;5.45;;;;;;;;;;5034275;28;20529;-82
2022/12/13 04:54:50;;;;;;;;;;;;;;;;;;5041572;28;20505;-82
2022/12/13 04:57:24;;;;;;;6.97;3.78;;;;;;;;;;5044118;28;20373;-82
2022/12/13 04:59:57;;;;;;;13.77;6.30;;;;;;;;;;5050260;28;20045;-82
2022/12/13 05:02:30;;;;;;;12.68;5.80;;;;;;;;;;5036625;28;20506;-83
2022/12/13 05:04:58;;;;;;;9.93;5.07;;;;;;;;;;5047384;28;20041;-81
2022/12/13 05:07:26;;;;;;;9.15;5.38;;;;;;;;;;5050097;28;20068;-82
2022/12/13 05:09:54;;;;;;;9.75;4.55;;;;;;;;;;5032911;28;20497;-82
2022/12/13 05:12:28;;;;;;;13.57;4.95;;;;;;;;;;5034615;28;20052;-82
2022/12/13 05:15:01;;;;;;;9.70;4.80;;;;;;;;;;5034867;28;20405;-83
2022/12/13 05:17:28;;;;;;;;;;;;;;;;;;5038154;28;20048;-83
2022/12/13 05:19:56;;;;;;;7.57;3.75;;;;;;;;;;5050183;28;19935;-83
2022/12/13 05:22:29;;;;;;;10.05;4.57;;;;;;;;;;5047526;28;20489;-82
2022/12/13 05:25:01;;;;;;;9.25;4.97;;;;;;;;;;5036468;28;20052;-82
2022/12/13 05:27:36;;;;;;;12.32;5.38;;;;;;;;;;5040388;28;20052;-82
2022/12/13 05:30:09;;;;;;;8.07;4.35;;;;;;;;;;5048888;28;20037;-83
2022/12/13 05:32:37;;;;;;;13.38;5.25;;;;;;;;;;5053324;28;20041;-82
2022/12/13 05:35:10;;;;;;;8.80;3.75;;;;;;;;;;5051162;28;20048;-82
2022/12/13 05:37:38;;;;;;;12.43;5.03;;;;;;;;;;5035445;28;20477;-83
2022/12/13 05:40:06;;;;;;;;;;;;;;;;;;5049501;28;20632;-82
2022/12/13 05:42:33;;;;;;;;;;;;;;;;;;5046611;28;20421;-82
2022/12/13 05:45:08;;;;;;;8.38;4.95;;;;;;;;;;5050532;28;19948;-82
2022/12/13 05:47:36;;;;;;;6.07;4.05;;;;;;;;;;5051862;28;20048;-82
2022/12/13 05:50:04;;;;;;;5.13;3.13;;;;;;;;;;5034386;28;20056;-82
2022/12/13 05:52:37;;;;;;;11.48;5.30;;;;;;;;;;5050796;28;20056;-82
2022/12/13 05:55:05;;;;;;;6.65;3.88;;;;;;;;;;5036828;28;20053;-82
2022/12/13 05:57:38;;;;;;;9.32;5.10;;;;;;;;;;5047512;28;20535;-82
2022/12/13 06:00:13;;;;;;;10.07;5.28;;;;;;;;;;5040818;28;20052;-83
2022/12/13 06:02:46;;;;;;;11.65;5.18;;;;;;;;;;5043755;28;20422;-82
2022/12/13 06:05:13;;;;;;;;;;;;;;;;;;5045938;28;20052;-82
2022/12/13 06:07:41;;;;;;;9.52;5.30;;;;;;;;;;5049484;28;19920;-83
2022/12/13 06:10:14;;;;;;;9.75;5.10;;;;;;;;;;5080687;28;20045;-82
2022/12/13 06:12:42;;;;;;;7.55;4.78;;;;;;;;;;5047715;28;20056;-83
2022/12/13 06:15:09;;;;;;;;;;;;;;;;;;5048632;28;20103;-82
2022/12/13 06:17:37;;;;;;;;;;;;;;;;;;5052887;28;19931;-82
2022/12/13 06:20:07;;;;;;;5.60;3.38;;;;;;;;;;5051066;28;19924;-82
2022/12/13 06:22:39;;;;;;;10.35;4.43;;;;;;;;;;5059934;28;20041;-83
2022/12/13 06:25:07;;;;;;;6.35;3.10;;;;;;;;;;5043931;28;20049;-82
2022/12/13 06:27:35;;;;;;;14.40;5.28;;;;;;;;;;5045587;28;20049;-82
2022/12/13 06:30:09;;;;;;;7.20;4.32;;;;;;;;;;5047286;28;20049;-82
2022/12/13 06:32:37;;;;;;;9.57;3.83;;;;;;;;;;5050782;28;20045;-82
2022/12/13 06:35:11;;;;;;;10.85;5.45;;;;;;;;;;5048312;28;20794;-83
2022/12/13 06:37:43;;;;;;;9.00;3.38;;;;;;;;;;5051780;28;20448;-82
2022/12/13 06:40:11;;;;;;;;;;;;;;;;;;5050292;28;20522;-81
2022/12/13 06:42:39;;;;;;;10.93;4.22;;;;;;;;;;5042462;28;20312;-82
2022/12/13 06:45:11;;;;;;;7.35;4.15;;;;;;;;;;5045223;28;20041;-82
2022/12/13 06:47:44;;;;;;;14.15;4.43;;;;;;;;;;5054288;28;20049;-82
2022/12/13 06:50:19;;;;;;;5.18;3.38;;;;;;;;;;5047585;28;20041;-82
2022/12/13 06:52:47;;;;;;;7.47;4.60;;;;;;;;;;5051931;28;20048;-83
2022/12/13 06:55:19;;;;;;;10.48;5.88;;;;;;;;;;5051370;28;20053;-82
2022/12/13 06:57:47;;;;;;;;;;;;;;;;;;5052354;28;20404;-82
2022/12/13 07:00:20;;;;;;;17.00;5.10;;;;;;;;;;5074541;28;20387;-82
2022/12/13 07:02:53;;;;;;;16.88;6.53;;;;;;;;;;5046522;28;20049;-82
2022/12/13 07:05:27;;;;;;;7.43;3.63;;;;;;;;;;5053451;28;20057;-85
2022/12/13 07:08:02;;;;;;;6.88;3.50;;;;;;;;;;5033204;28;20418;-80
2022/12/13 07:10:38;;;;;;;9.18;4.97;;;;;;;;;;5046627;28;20045;-82
2022/12/13 07:13:06;;;;;;;8.48;4.18;;;;;;;;;;5047640;28;20060;-81
2022/12/13 07:15:39;;;;;;;9.93;3.70;;;;;;;;;;5049808;28;20044;-81
2022/12/13 07:18:12;;;;;;;10.90;4.30;;;;;;;;;;5062451;28;20053;-83
2022/12/13 07:20:41;;;;;;;8.07;4.20;;;;;;;;;;5048883;28;20072;-83
2022/12/13 07:23:14;;;;;;;5.75;3.53;;;;;;;;;;5050051;28;20120;-83
2022/12/13 07:25:51;;;;;;;6.85;4.28;;;;;;;;;;5045786;28;20049;-81
2022/12/13 07:28:23;;;;;;;8.07;4.33;;;;;;;;;;5051767;28;20084;-81
2022/12/13 07:30:51;;;;;;;12.75;5.30;;;;;;;;;;5050052;28;20067;-81
2022/12/13 07:33:24;;;;;;;8.65;3.95;;;;;;;;;;5047879;28;20049;-82
2022/12/13 07:36:01;;;;;;;12.10;4.38;;;;;;;;;;5047334;28;20045;-81
2022/12/13 07:38:30;;;;;;;10.88;3.97;;;;;;;;;;5058977;28;20140;-81
2022/12/13 07:41:04;;;;;;;6.65;3.53;;;;;;;;;;5071844;28;20080;-81
2022/12/13 07:43:32;;;;;;;5.50;3.72;;;;;;;;;;5052231;28;20049;-82
2022/12/13 07:46:00;;;;;;;14.77;4.55;;;;;;;;;;5043348;28;20045;-81
2022/12/13 07:48:28;;;;;;;7.07;2.83;;;;;;;;;;5046142;28;20063;-81
2022/12/13 07:51:03;;;;;;;3.58;2.38;;;;;;;;;;5047759;28;20042;-82
2022/12/13 07:53:31;;;;;;;3.72;2.17;;;;;;;;;;5050362;28;20045;-81
2022/12/13 07:56:05;;;;;;;4.65;2.22;;;;;;;;;;5029120;28;20049;-82
2022/12/13 07:58:38;;;;;;;5.85;2.60;;;;;;;;;;5038794;28;20057;-82
2022/12/13 08:01:07;;;;;;;4.50;2.63;;;;;;;;;;5026781;28;20037;-82
2022/12/13 08:03:35;;;;;;;3.80;1.58;;;;;;;;;;5030158;28;20057;-82
2022/12/13 08:06:05;;;;;;;2.33;1.35;;;;;;;;;;5036485;28;20060;-82
2022/12/13 08:08:38;;;;;;;10.77;3.15;;;;;;;;;;5026625;28;20053;-82
2022/12/13 08:11:07;;;;;;;5.07;3.03;;;;;;;;;;5032839;28;20057;-81
2022/12/13 08:13:35;;;;;;;6.40;2.15;;;;;;;;;;5027283;28;20052;-84
2022/12/13 08:16:05;;;;;;;3.83;2.25;;;;;;;;;;5028674;28;20053;-83
2022/12/13 08:18:33;;;;;;;6.32;2.17;;;;;;;;;;5027694;28;20064;-82
2022/12/13 08:21:01;;;;;;;2.80;1.67;;;;;;;;;;5025798;28;20861;-81
2022/12/13 08:23:36;;;;;;;6.85;2.35;;;;;;;;;;5034584;28;20056;-83
2022/12/13 08:26:08;;;;;;;15.90;3.75;;;;;;;;;;5029135;28;20049;-83
2022/12/13 08:28:41;;;;;;;3.55;2.13;;;;;;;;;;5028942;28;20057;-82
2022/12/13 08:31:10;;;;;;;;;;;;;;;;;;5027086;28;20048;-81
2022/12/13 08:33:39;;;;;;;4.10;2.10;;;;;;;;;;5026281;28;20169;-82
2022/12/13 08:36:14;;;;;;;4.95;1.85;;;;;;;;;;5023455;28;20068;-82
2022/12/13 08:38:48;;;;;;;3.33;2.13;;;;;;;;;;5031247;28;20052;-81
2022/12/13 08:41:16;;;;;;;5.13;2.15;;;;;;;;;;5029866;28;20052;-82
2022/12/13 08:43:49;;;;;;;3.63;1.90;;;;;;;;;;5030600;28;20060;-82
2022/12/13 08:46:21;;;;;;;3.78;2.05;;;;;;;;;;5027685;28;20072;-82
2022/12/13 08:48:54;;;;;;;3.47;2.13;;;;;;;;;;5025950;28;20054;-81
2022/12/13 08:51:23;;;;;;;;;;;;;;;;;;5025400;28;20056;-83
2022/12/13 08:53:57;;;;;;;4.88;2.10;;;;;;;;;;5019967;28;19929;-83
2022/12/13 08:56:25;;;;;;;4.85;2.30;;;;;;;;;;5026432;28;20920;-82
2022/12/13 08:58:58;;;;;;;5.70;2.45;;;;;;;;;;5028327;28;20053;-82
2022/12/13 09:01:31;;;;;;;5.00;2.60;;;;;;;;;;5028309;28;20060;-81
2022/12/13 09:03:59;;;;;;;4.18;2.15;;;;;;;;;;5025542;28;20053;-82
2022/12/13 09:06:32;;;;;;;2.70;1.85;;;;;;;;;;5030793;28;20529;-82
2022/12/13 09:08:59;;;;;;;;;;;;;;;;;;5033848;28;20053;-82
2022/12/13 09:11:28;;;;;;;5.35;3.22;;;;;;;;;;5062168;28;19936;-83
2022/12/13 09:13:56;;;;;;;4.30;2.72;;;;;;;;;;5030532;28;20056;-82
2022/12/13 09:16:29;;;;;;;4.22;2.17;;;;;;;;;;5024555;28;21128;-82
2022/12/13 09:19:02;;;;;;;6.05;2.42;;;;;;;;;;5024011;28;20056;-81
2022/12/13 09:21:30;;;;;;;5.70;3.17;;;;;;;;;;5028491;28;20084;-83
2022/12/13 09:24:03;;;;;;;5.50;3.20;;;;;;;;;;5034741;28;20061;-82
2022/12/13 09:26:33;;;;;;;8.77;4.18;;;;;;;;;;5033040;28;20053;-83
2022/12/13 09:29:02;;;;;;;7.55;3.70;;;;;;;;;;5023080;28;20053;-83
2022/12/13 09:31:33;;;;;;;13.20;5.85;;;;;;;;;;5026984;28;20053;-83
2022/12/13 09:34:01;;;;;;;17.60;5.20;;;;;;;;;;5032185;28;20052;-84
2022/12/13 09:36:34;;;;;;;7.40;4.50;;;;;;;;;;5035550;28;20096;-84
2022/12/13 09:39:02;;;;;;;;;;;;;;;;;;5029134;28;20072;-83
2022/12/13 09:41:31;;;;;;;8.07;2.83;;;;;;;;;;5036411;28;19940;-82
2022/12/13 09:44:01;;;;;;;7.85;2.83;;;;;;;;;;5032398;28;20061;-82
2022/12/13 09:46:31;;;;;;;5.25;3.13;;;;;;;;;;5031163;28;20057;-85
2022/12/13 09:49:02;;;;;;;6.25;2.72;;;;;;;;;;5026750;28;20053;-83
2022/12/13 09:51:36;;;;;;;8.07;4.70;;;;;;;;;;5030752;28;20044;-84
2022/12/13 09:54:04;;;;;;;;;;;;;;;;;;5034040;28;20748;-84
2022/12/13 09:56:36;;;;;;;4.07;2.40;;;;;;;;;;5030204;28;19924;-83
2022/12/13 09:59:06;;;;;;;6.68;3.13;;;;;;;;;;5025854;28;20064;-85
2022/12/13 10:01:33;;;;;;;8.15;3.55;;;;;;;;;;5032353;28;20059;-84
2022/12/13 10:04:01;;;;;;;7.07;3.83;;;;;;;;;;5028847;28;20104;-83
2022/12/13 10:06:31;;;;;;;18.98;5.57;;;;;;;;;;5026926;28;21000;-83
2022/12/13 10:09:00;;;;;;;17.52;4.30;;;;;;;;;;5031357;28;20067;-83
2022/12/13 10:11:29;;;;;;;10.20;5.35;;;;;;;;;;5034454;28;20069;-83
2022/12/13 10:13:59;;;;;;;13.32;5.57;;;;;;;;;;5031094;28;20489;-82
2022/12/13 10:16:31;;;;;;;13.45;5.68;;;;;;;;;;5030134;28;20063;-81
2022/12/13 10:18:58;;;;;;;9.15;3.80;;;;;;;;;;5027050;28;20045;-82
2022/12/13 10:21:28;;;;;;;9.38;4.40;;;;;;;;;;5029513;28;20765;-83
2022/12/13 10:24:03;;;;;;;10.75;5.63;;;;;;;;;;5030182;28;20056;-83
2022/12/13 10:26:37;;;;;;;8.98;3.13;;;;;;;;;;5032197;28;20075;-82
2022/12/13 10:29:10;;;;;;;11.15;5.65;;;;;;;;;;5028351;28;20061;-81
2022/12/13 10:31:41;;;;;;;7.65;4.28;;;;;;;;;;5027114;28;20058;-83
2022/12/13 10:34:18;;;;;;;15.93;5.20;;;;;;;;;;5026940;28;20049;-82
2022/12/13 10:36:51;;;;;;;13.27;5.60;;;;;;;;;;5028724;28;20056;-82
2022/12/13 10:39:36;;;;;;;16.88;4.70;;;;;;;;;;5030002;28;20342;-82
2022/12/13 10:42:06;;;;;;;9.68;4.53;;;;;;;;;;5024188;28;20745;-81
2022/12/13 10:44:39;;;;;;;10.15;4.65;;;;;;;;;;5035930;28;20053;-85
2022/12/13 10:47:14;;;;;;;16.90;5.47;;;;;;;;;;5030961;28;20044;-83
2022/12/13 10:49:47;;;;;;;11.40;4.55;;;;;;;;;;5039045;28;20057;-82
2022/12/13 10:52:24;;;;;;;7.63;5.15;;;;;;;;;;5034794;28;20063;-82
2022/12/13 10:54:58;;;;;;;11.50;4.60;;;;;;;;;;5033426;28;20603;-83
2022/12/13 10:57:31;;;;;;;11.32;4.85;;;;;;;;;;5029919;28;20060;-83
2022/12/13 10:59:59;;;;;;;16.17;6.55;;;;;;;;;;5026321;28;20064;-82
2022/12/13 11:02:27;;;;;;;;;;;;;;;;;;5030654;28;20057;-83
2022/12/13 11:05:21;;;;;;;10.88;4.80;;;;;;;;;;5051006;28;20384;-82
2022/12/13 11:07:49;;;;;;;11.15;4.90;;;;;;;;;;5032093;28;20087;-86
2022/12/13 11:10:24;;;;;;;14.20;4.75;;;;;;;;;;5029144;28;20072;-83
2022/12/13 11:12:59;;;;;;;10.43;4.53;;;;;;;;;;5029638;28;20045;-85
2022/12/13 11:15:29;;;;;;;13.38;6.30;;;;;;;;;;5031265;28;20162;-85
2022/12/13 11:17:58;;;;;;;15.23;5.90;;;;;;;;;;5032606;28;20484;-82
2022/12/13 11:20:33;;;;;;;13.00;5.18;;;;;;;;;;5029894;28;20771;-82
2022/12/13 11:23:14;;;;;;;6.55;4.10;;;;;;;;;;5035237;28;20088;-86
2022/12/13 11:25:43;;;;;;;8.65;4.05;;;;;;;;;;5032104;28;20057;-85
2022/12/13 11:28:16;;;;;;;7.80;4.40;;;;;;;;;;5032557;28;20048;-84
2022/12/13 11:30:50;;;;;;;6.53;3.70;;;;;;;;;;5025468;28;20065;-85
2022/12/13 11:33:27;;;;;;;9.18;4.38;;;;;;;;;;5026185;28;21456;-84
2022/12/13 11:36:02;;;;;;;14.05;5.88;;;;;;;;;;5028859;28;20061;-84
2022/12/13 11:38:32;;;;;;;14.23;5.78;;;;;;;;;;5024303;28;20067;-84
2022/12/13 11:41:02;;;;;;;10.85;5.45;;;;;;;;;;5028007;28;20103;-84
2022/12/13 11:43:35;;;;;;;9.57;5.05;;;;;;;;;;5031322;28;20826;-85
2022/12/13 11:46:06;;;;;;;11.68;4.72;;;;;;;;;;5028768;28;20052;-83
2022/12/13 11:48:41;;;;;;;8.45;4.82;;;;;;;;;;5026660;28;20060;-84
2022/12/13 11:51:12;;;;;;;11.80;5.95;;;;;;;;;;5032383;28;20049;-84
2022/12/13 11:53:46;;;;;;;7.70;4.63;;;;;;;;;;5029448;28;20812;-84
2022/12/13 11:56:22;;;;;;;14.60;5.18;;;;;;;;;;5025129;28;20831;-85
2022/12/13 11:58:58;;;;;;;22.63;6.15;;;;;;;;;;5029040;28;20056;-83
2022/12/13 12:01:29;;;;;;;10.45;4.93;;;;;;;;;;5023509;28;20056;-86
2022/12/13 12:04:07;;;;;;;13.20;4.68;;;;;;;;;;5025047;28;20064;-83
2022/12/13 12:06:45;;;;;;;11.20;5.65;;;;;;;;;;5031655;28;20049;-86
2022/12/13 12:09:22;;;;;;;11.75;5.90;;;;;;;;;;5023077;28;20060;-87
2022/12/13 12:11:53;;;;;;;11.70;5.45;;;;;;;;;;5023570;28;20068;-86
2022/12/13 12:14:23;;;;;;;9.93;4.70;;;;;;;;;;5033770;28;20063;-86
2022/12/13 12:16:57;;;;;;;7.03;3.92;;;;;;;;;;5024470;28;20057;-87
2022/12/13 12:19:27;;;;;;;9.27;5.07;;;;;;;;;;5023465;28;20380;-87
2022/12/13 12:22:07;;;;;;;8.93;4.82;;;;;;;;;;5019849;28;20057;-88
2022/12/13 12:24:41;;;;;;;8.70;5.18;;;;;;;;;;5014833;28;20818;-87
2022/12/13 12:27:20;;;;;;;11.18;5.95;;;;;;;;;;5018044;28;20060;-86
2022/12/13 12:30:07;;;;;;;13.80;5.53;;;;;;;;;;5030774;28;20071;-85
2022/12/13 12:32:40;;;;;;;8.25;4.70;;;;;;;;;;5023396;28;20053;-88
2022/12/13 12:35:19;;;;;;;14.43;5.20;;;;;;;;;;5028649;28;20044;-87
2022/12/13 12:37:59;;;;;;;10.95;4.65;;;;;;;;;;5029761;28;20044;-85
2022/12/13 12:40:33;;;;;;;9.90;4.68;;;;;;;;;;5029801;28;20052;-85
2022/12/13 12:43:03;;;;;;;9.80;4.93;;;;;;;;;;5032698;28;20049;-85
2022/12/13 12:45:35;;;;;;;10.25;5.80;;;;;;;;;;5026323;28;20059;-85
2022/12/13 12:48:15;;;;;;;9.88;5.50;;;;;;;;;;5029830;28;20123;-85
2022/12/13 12:50:50;;;;;;;9.95;4.45;;;;;;;;;;5028009;28;20045;-85
2022/12/13 12:53:25;;;;;;;11.60;6.15;;;;;;;;;;5029435;28;20056;-86
2022/12/13 12:56:04;;;;;;;12.65;5.28;;;;;;;;;;5027846;28;20049;-83
2022/12/13 12:58:39;;;;;;;16.67;6.10;;;;;;;;;;5031535;28;20060;-84
2022/12/13 13:01:17;;;;;;;9.95;5.70;;;;;;;;;;5033459;28;20052;-84
2022/12/13 13:03:48;;;;;;;9.77;5.75;;;;;;;;;;5055592;28;20052;-83
2022/12/13 13:06:19;;;;;;;15.57;6.53;;;;;;;;;;5031639;28;20057;-83
2022/12/13 13:08:50;;;;;;;13.27;6.20;;;;;;;;;;5032481;28;20064;-83
2022/12/13 13:11:18;;;;;;;12.27;5.65;;;;;;;;;;5031343;28;20068;-84
2022/12/13 13:14:00;;;;;;;13.80;6.00;;;;;;;;;;5035169;28;20041;-84
2022/12/13 13:16:31;;;;;;;12.18;6.28;;;;;;;;;;5033566;28;20057;-83
2022/12/13 13:19:04;;;;;;;13.65;6.10;;;;;;;;;;5027547;28;20417;-82
2022/12/13 13:21:42;;;;;;;10.43;6.13;;;;;;;;;;5029836;28;20069;-83
2022/12/13 13:24:31;;;;;;;15.13;6.45;;;;;;;;;;5033908;28;20052;-82
2022/12/13 13:27:20;;;;;;;13.52;5.68;;;;;;;;;;5029106;28;20056;-82
2022/12/13 13:29:53;;;;;;;17.88;7.05;;;;;;;;;;5033239;28;20418;-84
2022/12/13 13:32:21;;;;;;;;;;;;;;;;;;5028886;28;20429;-83
2022/12/13 13:34:50;;;;;;;10.82;5.40;;;;;;;;;;5028812;28;20409;-84
2022/12/13 13:37:29;;;;;;;8.50;5.57;;;;;;;;;;5032173;28;20053;-84
2022/12/13 13:40:00;;;;;;;12.90;6.85;;;;;;;;;;5032838;28;21305;-84
2022/12/13 13:42:30;;;;;;;15.88;6.70;;;;;;;;;;5028552;28;20052;-83
2022/12/13 13:45:21;;;;;;;14.70;7.05;;;;;;;;;;5028222;28;20390;-83
2022/12/13 13:48:02;;;;;;;18.75;7.82;;;;;;;;;;5030287;28;20531;-83
2022/12/13 13:50:43;;;;;;;10.23;5.55;;;;;;;;;;5025255;28;21658;-83
2022/12/13 13:53:26;;;;;;;9.23;4.53;;;;;;;;;;5020235;28;20064;-82
2022/12/13 13:55:58;;;;;;;11.02;5.57;;;;;;;;;;4990574;28;20501;-83
2022/12/13 13:58:44;;;;;;;19.88;7.47;;;;;;;;;;5026071;28;20055;-82
2022/12/13 14:01:34;;;;;;;14.23;6.15;;;;;;;;;;5028353;28;20049;-84
2022/12/13 14:04:09;;;;;;;13.07;6.30;;;;;;;;;;5022716;28;20057;-83
2022/12/13 14:06:56;;;;;;;13.27;6.07;;;;;;;;;;5024855;28;20445;-81
2022/12/13 14:09:39;;;;;;;14.10;7.35;;;;;;;;;;5021882;28;20061;-82
2022/12/13 14:12:19;;;;;;;12.85;5.75;;;;;;;;;;5027480;28;20049;-82
2022/12/13 14:15:11;;;;;;;12.40;6.90;;;;;;;;;;5030496;28;20366;-84
2022/12/13 14:18:08;;;;;;;14.25;7.10;;;;;;;;;;5030933;28;20064;-84
2022/12/13 14:20:44;;;;;;;13.57;5.80;;;;;;;;;;5024635;28;21042;-83
2022/12/13 14:23:24;;;;;;;9.35;4.88;;;;;;;;;;5026996;28;20053;-81
2022/12/13 14:26:09;;;;;;;17.45;7.13;;;;;;;;;;5017602;28;20045;-82
2022/12/13 14:28:43;;;;;;;10.70;5.93;;;;;;;;;;5021113;28;20497;-82
2022/12/13 14:31:15;;;;;;;16.52;6.57;;;;;;;;;;5018006;28;20053;-81
2022/12/13 14:33:44;;;;;;;17.05;7.20;;;;;;;;;;5053888;28;20056;-82
2022/12/13 14:36:15;;;;;;;10.95;5.65;;;;;;;;;;5021716;28;20056;-82
2022/12/13 14:38:44;;;;;;;13.93;5.68;;;;;;;;;;5016898;28;20347;-81
2022/12/13 14:41:17;;;;;;;10.13;5.93;;;;;;;;;;5017094;28;20052;-84
2022/12/13 14:43:50;;;;;;;15.35;6.85;;;;;;;;;;5028763;28;20421;-82
2022/12/13 14:46:24;;;;;;;15.63;5.68;;;;;;;;;;5028337;28;20056;-83
2022/12/13 14:48:58;;;;;;;13.18;6.03;;;;;;;;;;5023095;28;20052;-82
2022/12/13 14:51:31;;;;;;;15.63;6.50;;;;;;;;;;5020847;28;20060;-82
2022/12/13 14:53:59;;;;;;;14.40;7.50;;;;;;;;;;5019334;28;20493;-84
2022/12/13 14:56:27;;;;;;;13.77;7.35;;;;;;;;;;5019848;28;20332;-84
2022/12/13 14:59:02;;;;;;;15.32;7.50;;;;;;;;;;5031273;28;20053;-83
2022/12/13 15:01:36;;;;;;;15.27;7.43;;;;;;;;;;5042548;28;20053;-83
2022/12/13 15:04:18;;;;;;;11.77;6.70;;;;;;;;;;5043128;28;20066;-82
2022/12/13 15:06:46;;;;;;;16.33;7.45;;;;;;;;;;5048885;28;20049;-83
2022/12/13 15:09:14;;;;;;;16.27;8.73;;;;;;;;;;5069360;28;20049;-83
2022/12/13 15:11:44;;;;;;;17.88;7.80;;;;;;;;;;5046710;28;20049;-84
2022/12/13 15:14:14;;;;;;;17.65;9.88;;;;;;;;;;5047514;28;20038;-84
2022/12/13 15:16:49;;;;;;;15.43;7.65;;;;;;;;;;5047715;28;20516;-85
2022/12/13 15:19:28;;;;;;;19.20;10.05;;;;;;;;;;5047414;28;20044;-82
2022/12/13 15:22:13;;;;;;;24.10;11.20;;;;;;;;;;5054182;28;20438;-83
2022/12/13 15:24:50;;;;;;;20.45;9.90;;;;;;;;;;5046566;28;20049;-84